Pagina principale
METAR-TAF:

METAR-TAF

Aeroporti :

Tarawa, Kiribati

Aeroporto di Bonriki

latitudine: 01-21N, longitudine: 172-55E, altezza: 2 m

Osservazione

Il bollettino è stato emesso 35 minuti fa, alle 17:00 UTC
Vento 12 kt da est/sud-est
Temperature 28°C
Umidità 79%
Pressione 1006 hPa
Visibilità 10 km o più
Poco nuvoloso ad un'altezza di 2000 ft
Nuvoloso ad un'altezza di 30000 ft

METAR: NGTA 191700Z 12012KT 9999 FEW020 BKN300 28/24 Q1006

Ora: 07:35 (17:35 UTC)

Previsione

Il bollettino è stato emesso 25 minuti fa, alle 17:10 UTC
Previsione valida dal 19 alle 18 UTC al 20 alle 18 UTC
Vento 15 kt da sud-est
Visibilità 10 km o più
Poco nuvoloso ad un'altezza di 1800 ft
Nubi sparse ad un'altezza di 4500 ft
Probabilità 30% :
Temporaneamente
dal 19 alle 18 UTC al 20 alle 06 UTC
Visibilità: 3000 m
Poco nuvoloso ad un'altezza di 1800 ft, Cumulonembo.
temporale, pioggia

TAF: NGTA 191710Z 1918/2018 13015KT 9999 FEW018 SCT045 PROB30 TEMPO 1918/2006 3000 TSRA FEW018CB

Osservazioni e previsioni meteorologiche di più di 4000 aeroporti (messaggi METAR e TAF).

Le stazioni disponibili sono rappresentate dai dischi gialli e rossi sulla carta.

Puntare il mouse per vedere il nome della stazione.

Clicca sopra per visualizzare le osservazioni e previsioni meteorologiche.

Per cambiare la mappa : fare clic sui pulsanti verdi con una croce nera per ingrandire, il pulsante verde con un trattino per diminuire, o sulla freccia verde per le mappe adiacenti.


METAR-TAF: